^^

..:: Storico WU ::..




Lo storico viene creato da WUnderground con i dati che la stazione Meteomincio invia al loro server. L' aggiornamento viene fatto ogni 5 minuti circa, tuttavia possono esserci intervalli pił ampi a causa di errori, interruzioni di servizio o problemi nell' invio tramite FTP.


Storico stazione MeteoMincio
Giorno Sommario per Novembre 13, 2022 Unità:  Inglese    Metrico   Entrambi
Giorno Settimana Mese Anno
  Max: Min: Media:
Temperatura: 60.8 °F 46.4 °F 53.2 °F
Dew Point: 50 °F 44.6 °F 47.7 °F
Umidità: 100% 67% 82%
Velocità vento: 19.3mph 0mph 5.4mph
Raffica: 24.2mph - -
Direzione- - East
Pressione: 30.3 in 30.2 in -
Precipitazioni: 0.03 in    
 
 
Tabulato Dati per Novembre 13, 2022
Ora Temperatura Dew Point Pressione Direzione Velocità vento Raffica Umidità Intensità pioggia (oraria) Info solare Situazione
00:04 50 °F 48.2 °F 30.3 in NNE 3.1 mph 3.7 mph 97% 0 in 0.00 W/m2 unknown
00:09 50 °F 48.2 °F 30.3 in NNE 2.5 mph 3.7 mph 97% 0 in 0.00 W/m2 unknown
00:14 50 °F 48.2 °F 30.3 in NNE 2.5 mph 3.7 mph 97% 0 in 0.00 W/m2 unknown
00:19 50 °F 48.2 °F 30.3 in NNE 1.9 mph 3.7 mph 97% 0 in 0.00 W/m2 unknown
00:24 50 °F 48.2 °F 30.3 in NNE 1.2 mph 3.1 mph 97% 0 in 0.00 W/m2 unknown
00:29 50 °F 50 °F 30.3 in NNE 1.2 mph 1.9 mph 100% 0 in 0.00 W/m2 unknown
00:34 50 °F 48.2 °F 30.3 in NNW 1.9 mph 3.7 mph 97% 0 in 0.00 W/m2 unknown
00:39 48.2 °F 48.2 °F 30.3 in WSW 2.5 mph 3.7 mph 97% 0 in 0.00 W/m2 unknown
00:44 48.2 °F 48.2 °F 30.3 in WSW 3.1 mph 3.7 mph 97% 0 in 0.00 W/m2 unknown
00:49 48.2 °F 48.2 °F 30.3 in SW 3.1 mph 3.7 mph 97% 0 in 0.00 W/m2 unknown
00:54 48.2 °F 48.2 °F 30.3 in SW 3.1 mph 3.7 mph 97% 0 in 0.00 W/m2 unknown
00:59 50 °F 48.2 °F 30.3 in SW 1.9 mph 3.7 mph 97% 0 in 0.00 W/m2 unknown
01:04 48.2 °F 48.2 °F 30.3 in SW 3.1 mph 3.7 mph 97% 0 in 0.00 W/m2 unknown
01:09 48.2 °F 48.2 °F 30.3 in SW 2.5 mph 3.7 mph 97% 0 in 0.00 W/m2 unknown
01:14 48.2 °F 48.2 °F 30.3 in SW 3.1 mph 3.7 mph 97% 0 in 0.00 W/m2 unknown
01:19 48.2 °F 48.2 °F 30.3 in WSW 1.9 mph 3.7 mph 97% 0 in 0.00 W/m2 unknown
01:24 48.2 °F 48.2 °F 30.3 in WSW 1.2 mph 2.5 mph 97% 0 in 0.00 W/m2 unknown
01:29 48.2 °F 48.2 °F 30.3 in WSW 1.2 mph 2.5 mph 97% 0 in 0.00 W/m2 unknown
01:34 48.2 °F 48.2 °F 30.3 in WSW 1.2 mph 2.5 mph 97% 0 in 0.00 W/m2 unknown
01:39 48.2 °F 48.2 °F 30.3 in WSW 0.6 mph 1.9 mph 97% 0 in 0.00 W/m2 unknown
01:44 48.2 °F 48.2 °F 30.3 in Calm     97% 0 in 0.00 W/m2 unknown
01:49 48.2 °F 46.4 °F 30.3 in Calm     97% 0 in 0.00 W/m2 unknown
01:54 48.2 °F 46.4 °F 30.3 in NW 1.2 mph 1.9 mph 97% 0 in 0.00 W/m2 unknown
01:59 48.2 °F 46.4 °F 30.3 in North 1.9 mph 2.5 mph 97% 0 in 0.00 W/m2 unknown
02:04 48.2 °F 48.2 °F 30.3 in ENE 2.5 mph 3.7 mph 100% 0 in 0.00 W/m2 unknown
02:09 48.2 °F 48.2 °F 30.3 in SE 2.5 mph 3.7 mph 100% 0 in 0.00 W/m2 unknown
02:14 48.2 °F 46.4 °F 30.3 in East 2.5 mph 3.7 mph 98% 0 in 0.00 W/m2 unknown
02:19 46.4 °F 46.4 °F 30.3 in ENE 2.5 mph 3.7 mph 97% 0 in 0.00 W/m2 unknown
02:24 46.4 °F 46.4 °F 30.3 in NE 1.2 mph 3.1 mph 97% 0 in 0.00 W/m2 unknown
02:29 46.4 °F 46.4 °F 30.3 in NNE 2.5 mph 3.7 mph 97% 0 in 0.00 W/m2 unknown
02:34 46.4 °F 46.4 °F 30.3 in South 2.5 mph 3.7 mph 97% 0 in 0.00 W/m2 unknown
02:39 46.4 °F 46.4 °F 30.3 in SSE 3.1 mph 3.7 mph 97% 0 in 0.00 W/m2 unknown
02:44 46.4 °F 44.6 °F 30.3 in SSE 2.5 mph 3.7 mph 97% 0 in 0.00 W/m2 unknown
02:49 46.4 °F 44.6 °F 30.3 in ESE 2.5 mph 5 mph 97% 0 in 0.00 W/m2 unknown
02:54 46.4 °F 44.6 °F 30.3 in East 2.5 mph 5 mph 97% 0 in 0.00 W/m2 unknown
02:59 46.4 °F 46.4 °F 30.3 in ENE 6.8 mph 8.1 mph 97% 0 in 0.00 W/m2 unknown
03:04 46.4 °F 46.4 °F 30.3 in ENE 6.8 mph 8.1 mph 97% 0 in 0.00 W/m2 unknown
03:09 46.4 °F 46.4 °F 30.3 in East 5.6 mph 8.1 mph 97% 0 in 0.00 W/m2 unknown
03:14 48.2 °F 48.2 °F 30.3 in East 5.6 mph 6.8 mph 100% 0 in 0.00 W/m2 unknown
03:19 48.2 °F 46.4 °F 30.3 in East 5.6 mph 6.8 mph 99% 0 in 0.00 W/m2 unknown
03:24 48.2 °F 46.4 °F 30.3 in East 5 mph 6.2 mph 96% 0 in 0.00 W/m2 unknown
03:29 48.2 °F 46.4 °F 30.3 in East 4.3 mph 6.2 mph 96% 0 in 0.00 W/m2 unknown
03:34 48.2 °F 46.4 °F 30.3 in East 3.7 mph 5 mph 95% 0 in 0.00 W/m2 unknown
03:39 48.2 °F 46.4 °F 30.3 in East 5 mph 6.2 mph 95% 0 in 0.00 W/m2 unknown
03:44 48.2 °F 46.4 °F 30.3 in East 5 mph 6.2 mph 95% 0 in 0.00 W/m2 unknown
03:49 48.2 °F 46.4 °F 30.3 in East 4.3 mph 5 mph 95% 0 in 0.00 W/m2 unknown
03:54 48.2 °F 46.4 °F 30.3 in East 4.3 mph 6.2 mph 94% 0 in 0.00 W/m2 unknown
03:59 48.2 °F 46.4 °F 30.3 in ENE 6.2 mph 9.3 mph 94% 0 in 0.00 W/m2 unknown
04:04 50 °F 46.4 °F 30.3 in ENE 6.2 mph 9.9 mph 93% 0 in 0.00 W/m2 unknown
04:09 50 °F 46.4 °F 30.3 in ENE 6.2 mph 9.9 mph 91% 0 in 0.00 W/m2 unknown
04:14 50 °F 46.4 °F 30.3 in ENE 5 mph 8.7 mph 89% 0 in 0.00 W/m2 unknown
04:19 50 °F 46.4 °F 30.3 in East 4.3 mph 6.2 mph 86% 0 in 0.00 W/m2 unknown
04:24 50 °F 46.4 °F 30.3 in ENE 4.3 mph 6.2 mph 86% 0 in 0.00 W/m2 unknown
04:29 50 °F 46.4 °F 30.3 in ENE 5 mph 8.7 mph 86% 0 in 0.00 W/m2 unknown
04:34 50 °F 46.4 °F 30.3 in ENE 5.6 mph 9.3 mph 86% 0 in 0.00 W/m2 unknown
04:39 50 °F 46.4 °F 30.3 in East 5.6 mph 8.7 mph 84% 0 in 0.00 W/m2 unknown
04:44 51.8 °F 46.4 °F 30.3 in East 5.6 mph 8.1 mph 83% 0 in 0.00 W/m2 unknown
04:49 51.8 °F 46.4 °F 30.3 in East 5 mph 8.1 mph 82% 0 in 0.00 W/m2 unknown
04:54 51.8 °F 46.4 °F 30.3 in ESE 4.3 mph 6.8 mph 83% 0 in 0.00 W/m2 unknown
04:59 50 °F 44.6 °F 30.3 in East 5.6 mph 6.8 mph 83% 0 in 0.00 W/m2 unknown
05:04 50 °F 44.6 °F 30.3 in East 5 mph 6.8 mph 83% 0 in 0.00 W/m2 unknown
05:09 50 °F 44.6 °F 30.3 in ENE 5 mph 8.1 mph 82% 0 in 0.00 W/m2 unknown
05:14 50 °F 44.6 °F 30.3 in ENE 5.6 mph 8.1 mph 81% 0 in 0.00 W/m2 unknown
05:19 50 °F 44.6 °F 30.3 in East 5 mph 8.1 mph 82% 0 in 0.00 W/m2 unknown
05:24 50 °F 44.6 °F 30.3 in ESE 5 mph 8.7 mph 83% 0 in 0.00 W/m2 unknown
05:29 50 °F 44.6 °F 30.3 in East 5.6 mph 8.7 mph 84% 0 in 0.00 W/m2 unknown
05:34 50 °F 44.6 °F 30.3 in NE 3.1 mph 8.1 mph 83% 0 in 0.00 W/m2 unknown
05:39 50 °F 44.6 °F 30.3 in NNE 3.7 mph 6.8 mph 83% 0 in 0.00 W/m2 unknown
05:44 50 °F 44.6 °F 30.3 in North 4.3 mph 6.8 mph 82% 0 in 0.00 W/m2 unknown
05:49 50 °F 44.6 °F 30.3 in NNE 3.7 mph 6.2 mph 81% 0 in 0.00 W/m2 unknown
05:54 50 °F 44.6 °F 30.3 in NE 6.2 mph 8.1 mph 81% 0 in 0.00 W/m2 unknown
05:59 50 °F 44.6 °F 30.3 in NNE 5 mph 8.1 mph 80% 0 in 0.00 W/m2 unknown
06:04 50 °F 44.6 °F 30.3 in NE 5.6 mph 10.6 mph 80% 0 in 0.00 W/m2 unknown
06:09 50 °F 44.6 °F 30.3 in East 5 mph 10.6 mph 80% 0 in 0.00 W/m2 unknown
06:14 51.8 °F 44.6 °F 30.3 in ENE 10.6 mph 14.9 mph 80% 0 in 0.00 W/m2 unknown
06:19 51.8 °F 44.6 °F 30.3 in ENE 11.8 mph 16.2 mph 80% 0 in 0.00 W/m2 unknown
06:24 51.8 °F 44.6 °F 30.3 in ENE 11.2 mph 16.2 mph 79% 0 in 0.00 W/m2 unknown
06:29 51.8 °F 44.6 °F 30.3 in ENE 11.8 mph 14.3 mph 78% 0 in 0.00 W/m2 unknown
06:34 51.8 °F 44.6 °F 30.3 in East 9.3 mph 14.3 mph 79% 0 in 0.00 W/m2 unknown
06:39 51.8 °F 44.6 °F 30.3 in ENE 8.1 mph 13 mph 79% 0 in 0.00 W/m2 unknown
06:44 51.8 °F 44.6 °F 30.3 in ENE 7.5 mph 13 mph 79% 0 in 0.00 W/m2 unknown
06:49 51.8 °F 44.6 °F 30.3 in ENE 6.8 mph 9.3 mph 80% 0 in 0.00 W/m2 unknown
06:54 50 °F 44.6 °F 30.3 in ENE 6.2 mph 8.7 mph 80% 0 in 0.00 W/m2 unknown
06:59 50 °F 44.6 °F 30.3 in East 5 mph 8.1 mph 81% 0 in 0.00 W/m2 unknown
07:04 50 °F 44.6 °F 30.3 in ENE 5.6 mph 8.1 mph 81% 0 in 0.00 W/m2 unknown
07:09 50 °F 44.6 °F 30.3 in ENE 6.2 mph 9.3 mph 81% 0 in 0.00 W/m2 unknown
07:14 50 °F 44.6 °F 30.3 in ENE 6.8 mph 9.9 mph 81% 0 in 0.00 W/m2 unknown
07:19 50 °F 44.6 °F 30.3 in East 6.2 mph 10.6 mph 81% 0 in 5.00 W/m2 unknown
07:24 50 °F 44.6 °F 30.3 in ENE 8.1 mph 11.8 mph 81% 0 in 7.00 W/m2 unknown
07:29 50 °F 44.6 °F 30.3 in ENE 8.1 mph 11.8 mph 81% 0 in 11.00 W/m2 unknown
07:34 50 °F 44.6 °F 30.3 in ENE 8.1 mph 10.6 mph 81% 0 in 14.00 W/m2 unknown
07:39 50 °F 44.6 °F 30.3 in ENE 6.8 mph 9.9 mph 81% 0 in 19.00 W/m2 unknown
07:44 50 °F 44.6 °F 30.3 in ENE 6.2 mph 9.3 mph 81% 0 in 21.00 W/m2 unknown
07:49 50 °F 44.6 °F 30.3 in ENE 6.8 mph 9.3 mph 81% 0 in 23.00 W/m2 unknown
07:54 50 °F 44.6 °F 30.3 in East 6.8 mph 9.3 mph 81% 0 in 30.00 W/m2 unknown
07:59 50 °F 44.6 °F 30.3 in ENE 6.2 mph 8.7 mph 82% 0 in 33.00 W/m2 unknown
08:04 50 °F 44.6 °F 30.3 in ENE 6.2 mph 8.1 mph 81% 0 in 58.00 W/m2 unknown
08:09 50 °F 44.6 °F 30.3 in ENE 7.5 mph 11.8 mph 81% 0 in 49.00 W/m2 unknown
08:14 51.8 °F 46.4 °F 30.3 in ENE 6.8 mph 11.8 mph 81% 0 in 93.00 W/m2 unknown
08:19 51.8 °F 46.4 °F 30.3 in ENE 6.2 mph 11.8 mph 80% 0 in 142.00 W/m2 unknown
08:24 53.6 °F 46.4 °F 30.3 in ENE 6.8 mph 10.6 mph 78% 0 in 165.00 W/m2 unknown
08:29 53.6 °F 46.4 °F 30.3 in ENE 6.8 mph 10.6 mph 77% 0 in 185.00 W/m2 unknown
08:34 53.6 °F 46.4 °F 30.3 in ENE 8.7 mph 13 mph 76% 0 in 185.00 W/m2 unknown
08:39 53.6 °F 46.4 °F 30.3 in ENE 8.7 mph 13 mph 75% 0 in 151.00 W/m2 unknown
08:44 53.6 °F 46.4 °F 30.3 in ENE 9.3 mph 13 mph 75% 0 in 163.00 W/m2 unknown
08:49 53.6 °F 46.4 °F 30.3 in NE 9.3 mph 11.8 mph 74% 0 in 176.00 W/m2 unknown
08:54 55.4 °F 46.4 °F 30.3 in NE 7.5 mph 11.8 mph 74% 0 in 188.00 W/m2 unknown
08:59 55.4 °F 46.4 °F 30.3 in NE 9.9 mph 13 mph 74% 0 in 200.00 W/m2 unknown
09:04 55.4 °F 46.4 °F 30.3 in ENE 8.7 mph 13 mph 73% 0 in 213.00 W/m2 unknown
09:09 55.4 °F 46.4 °F 30.3 in ENE 8.1 mph 11.8 mph 73% 0 in 223.00 W/m2 unknown
09:14 55.4 °F 46.4 °F 30.3 in ENE 9.9 mph 13 mph 72% 0 in 234.00 W/m2 unknown
09:19 57.2 °F 46.4 °F 30.3 in ENE 8.7 mph 14.3 mph 71% 0 in 243.00 W/m2 unknown
09:24 57.2 °F 46.4 °F 30.3 in ENE 12.4 mph 14.9 mph 71% 0.01 in 253.00 W/m2 unknown
09:29 57.2 °F 46.4 °F 30.3 in ENE 13.7 mph 17.4 mph 70% 0.01 in 264.00 W/m2 unknown
09:34 57.2 °F 48.2 °F 30.3 in ENE 13.7 mph 17.4 mph 70% 0.01 in 274.00 W/m2 unknown
09:39 57.2 °F 48.2 °F 30.3 in NE 13 mph 21.1 mph 71% 0.01 in 281.00 W/m2 unknown
09:44 57.2 °F 48.2 °F 30.3 in ENE 10.6 mph 21.1 mph 70% 0.01 in 290.00 W/m2 unknown
09:49 57.2 °F 48.2 °F 30.3 in ENE 13.7 mph 17.4 mph 70% 0.01 in 299.00 W/m2 unknown
09:54 57.2 °F 48.2 °F 30.3 in ENE 14.9 mph 19.9 mph 70% 0.01 in 308.00 W/m2 unknown
09:59 57.2 °F 48.2 °F 30.3 in ENE 14.3 mph 21.1 mph 70% 0.01 in 315.00 W/m2 unknown
10:04 59 °F 48.2 °F 30.3 in ENE 13 mph 17.4 mph 70% 0.01 in 323.00 W/m2 unknown
10:09 59 °F 48.2 °F 30.3 in ENE 13.7 mph 17.4 mph 69% 0.01 in 330.00 W/m2 unknown
10:14 59 °F 48.2 °F 30.3 in ENE 13 mph 19.3 mph 68% 0.01 in 338.00 W/m2 unknown
10:19 59 °F 48.2 °F 30.3 in ENE 14.3 mph 19.9 mph 67% 0.01 in 346.00 W/m2 unknown
10:24 59 °F 48.2 °F 30.3 in ENE 10.6 mph 19.9 mph 68% 0.01 in 352.00 W/m2 unknown
10:29 59 °F 48.2 °F 30.3 in ENE 19.3 mph 24.2 mph 68% 0 in 357.00 W/m2 unknown
10:34 59 °F 48.2 °F 30.3 in ENE 18 mph 24.2 mph 67% 0 in 364.00 W/m2 unknown
10:39 59 °F 48.2 °F 30.3 in ENE 16.2 mph 24.2 mph 68% 0 in 373.00 W/m2 unknown
10:44 59 °F 48.2 °F 30.3 in ENE 14.3 mph 21.7 mph 69% 0 in 378.00 W/m2 unknown
10:49 59 °F 48.2 °F 30.3 in East 16.8 mph 23 mph 69% 0 in 383.00 W/m2 unknown
10:54 59 °F 50 °F 30.3 in ENE 14.3 mph 23 mph 70% 0 in 387.00 W/m2 unknown
10:59 59 °F 48.2 °F 30.3 in ENE 14.3 mph 19.9 mph 69% 0 in 397.00 W/m2 unknown
11:04 59 °F 50 °F 30.3 in ENE 13 mph 19.9 mph 70% 0 in 403.00 W/m2 unknown
11:09 59 °F 50 °F 30.3 in ENE 13 mph 17.4 mph 70% 0 in 406.00 W/m2 unknown
11:14 59 °F 48.2 °F 30.3 in ENE 11.2 mph 16.2 mph 68% 0 in 408.00 W/m2 unknown
11:19 60.8 °F 50 °F 30.3 in ENE 9.9 mph 16.2 mph 69% 0 in 415.00 W/m2 unknown
11:24 60.8 °F 50 °F 30.3 in ENE 11.8 mph 14.9 mph 68% 0 in 415.00 W/m2 unknown
11:29 59 °F 48.2 °F 30.3 in ENE 12.4 mph 16.2 mph 68% 0 in 420.00 W/m2 unknown
11:34 60.8 °F 50 °F 30.3 in ENE 13 mph 16.2 mph 68% 0 in 420.00 W/m2 unknown
11:39 60.8 °F 50 °F 30.3 in East 11.8 mph 17.4 mph 68% 0 in 378.00 W/m2 unknown
11:44 59 °F 48.2 °F 30.3 in East 11.8 mph 16.8 mph 68% 0 in 378.00 W/m2 unknown
11:49 60.8 °F 50 °F 30.3 in ENE 8.1 mph 14.3 mph 69% 0 in 490.00 W/m2 unknown
11:54 60.8 °F 50 °F 30.3 in ENE 8.1 mph 13 mph 69% 0 in 448.00 W/m2 unknown
11:59 60.8 °F 50 °F 30.3 in ENE 8.1 mph 13 mph 69% 0 in 169.00 W/m2 unknown
12:04 59 °F 50 °F 30.3 in ENE 8.7 mph 11.8 mph 70% 0 in 204.00 W/m2 unknown
12:09 59 °F 50 °F 30.3 in ENE 8.7 mph 11.8 mph 70% 0 in 204.00 W/m2 unknown
12:14 59 °F 48.2 °F 30.3 in ENE 6.8 mph 11.8 mph 70% 0 in 211.00 W/m2 unknown
12:19 59 °F 50 °F 30.3 in East 6.8 mph 11.8 mph 71% 0 in 485.00 W/m2 unknown
12:24 59 °F 50 °F 30.3 in East 6.8 mph 9.9 mph 70% 0 in 473.00 W/m2 unknown
12:29 60.8 °F 50 °F 30.3 in East 8.1 mph 9.9 mph 69% 0 in 438.00 W/m2 unknown
12:34 60.8 °F 50 °F 30.3 in East 8.1 mph 11.2 mph 69% 0 in 432.00 W/m2 unknown
12:39 60.8 °F 50 °F 30.3 in East 9.3 mph 11.8 mph 68% 0 in 439.00 W/m2 unknown
12:44 60.8 °F 50 °F 30.3 in East 9.3 mph 11.8 mph 68% 0 in 387.00 W/m2 unknown
12:49 60.8 °F 50 °F 30.3 in ENE 6.8 mph 11.8 mph 68% 0 in 294.00 W/m2 unknown
12:54 59 °F 50 °F 30.3 in ENE 7.5 mph 9.3 mph 68% 0 in 294.00 W/m2 unknown
12:59 59 °F 50 °F 30.3 in ENE 6.2 mph 11.8 mph 69% 0 in 142.00 W/m2 unknown
13:04 59 °F 50 °F 30.3 in East 7.5 mph 11.8 mph 69% 0 in 144.00 W/m2 unknown
13:09 59 °F 50 °F 30.3 in ESE 8.1 mph 11.8 mph 70% 0 in 234.00 W/m2 unknown
13:14 59 °F 50 °F 30.3 in ESE 6.8 mph 11.8 mph 70% 0 in 188.00 W/m2 unknown
13:19 59 °F 50 °F 30.3 in East 6.8 mph 9.9 mph 70% 0 in 156.00 W/m2 unknown
13:24 59 °F 50 °F 30.3 in East 7.5 mph 9.9 mph 71% 0 in 494.00 W/m2 unknown
13:29 60.8 °F 50 °F 30.3 in East 8.1 mph 10.6 mph 70% 0 in 432.00 W/m2 unknown
13:34 60.8 °F 50 °F 30.3 in East 8.1 mph 11.8 mph 68% 0 in 396.00 W/m2 unknown
13:39 60.8 °F 50 °F 30.3 in ESE 8.7 mph 11.8 mph 68% 0 in 404.00 W/m2 unknown
13:44 60.8 °F 50 °F 30.3 in East 9.3 mph 11.8 mph 68% 0 in 401.00 W/m2 unknown
13:49 60.8 °F 50 °F 30.3 in ESE 6.2 mph 11.8 mph 68% 0 in 343.00 W/m2 unknown
13:54 60.8 °F 50 °F 30.2 in ESE 7.5 mph 9.3 mph 68% 0 in 267.00 W/m2 unknown
13:59 60.8 °F 50 °F 30.2 in SE 6.2 mph 8.7 mph 68% 0 in 204.00 W/m2 unknown
14:04 59 °F 50 °F 30.2 in ESE 3.7 mph 8.1 mph 70% 0 in 163.00 W/m2 unknown
14:09 59 °F 50 °F 30.2 in ESE 4.3 mph 8.1 mph 70% 0 in 118.00 W/m2 unknown
14:14 59 °F 50 °F 30.2 in ESE 5.6 mph 8.1 mph 71% 0 in 118.00 W/m2 unknown
14:19 59 °F 50 °F 30.2 in East 5 mph 8.1 mph 71% 0 in 104.00 W/m2 unknown
14:24 59 °F 50 °F 30.2 in East 1.9 mph 6.8 mph 71% 0 in 139.00 W/m2 unknown
14:29 59 °F 50 °F 30.2 in East 3.1 mph 5 mph 72% 0 in 221.00 W/m2 unknown
14:34 59 °F 50 °F 30.2 in East 3.1 mph 5 mph 72% 0 in 255.00 W/m2 unknown
14:39 59 °F 50 °F 30.2 in East 2.5 mph 5 mph 71% 0 in 292.00 W/m2 unknown
14:44 60.8 °F 50 °F 30.2 in ENE 3.1 mph 6.2 mph 70% 0 in 227.00 W/m2 unknown
14:49 60.8 °F 50 °F 30.2 in East 3.7 mph 6.2 mph 70% 0 in 206.00 W/m2 unknown
14:54 59 °F 50 °F 30.2 in East 3.7 mph 6.2 mph 71% 0 in 120.00 W/m2 unknown
14:59 59 °F 50 °F 30.2 in East 6.8 mph 8.7 mph 71% 0 in 104.00 W/m2 unknown
15:04 59 °F 50 °F 30.2 in East 6.8 mph 9.3 mph 71% 0 in 93.00 W/m2 unknown
15:09 59 °F 50 °F 30.2 in East 6.2 mph 8.7 mph 71% 0 in 84.00 W/m2 unknown
15:14 59 °F 50 °F 30.2 in ENE 3.1 mph 6.2 mph 72% 0 in 72.00 W/m2 unknown
15:19 59 °F 50 °F 30.2 in East 5 mph 6.8 mph 73% 0 in 77.00 W/m2 unknown
15:24 59 °F 50 °F 30.2 in East 3.7 mph 6.8 mph 73% 0 in 81.00 W/m2 unknown
15:29 59 °F 50 °F 30.2 in East 2.5 mph 5 mph 74% 0 in 77.00 W/m2 unknown
15:34 59 °F 50 °F 30.2 in East 3.1 mph 5 mph 74% 0 in 62.00 W/m2 unknown
15:39 57.2 °F 50 °F 30.2 in East 4.3 mph 8.1 mph 74% 0 in 56.00 W/m2 unknown
15:44 57.2 °F 50 °F 30.2 in East 5 mph 8.1 mph 74% 0 in 54.00 W/m2 unknown
15:49 57.2 °F 50 °F 30.2 in ENE 5 mph 6.2 mph 74% 0 in 47.00 W/m2 unknown
15:54 57.2 °F 50 °F 30.2 in ENE 4.3 mph 6.2 mph 75% 0 in 32.00 W/m2 unknown
15:59 57.2 °F 50 °F 30.2 in East 3.1 mph 6.2 mph 75% 0 in 21.00 W/m2 unknown
16:04 57.2 °F 50 °F 30.2 in ENE 3.7 mph 5 mph 75% 0 in 25.00 W/m2 unknown
16:09 57.2 °F 48.2 °F 30.2 in ENE 5 mph 8.1 mph 75% 0 in 26.00 W/m2 unknown
16:14 57.2 °F 48.2 °F 30.2 in ENE 3.1 mph 8.1 mph 75% 0 in 26.00 W/m2 unknown
16:19 57.2 °F 48.2 °F 30.2 in ENE 4.3 mph 6.8 mph 76% 0 in 23.00 W/m2 unknown
16:24 55.4 °F 48.2 °F 30.2 in ENE 3.7 mph 6.8 mph 76% 0 in 19.00 W/m2 unknown
16:29 55.4 °F 48.2 °F 30.2 in ENE 3.1 mph 6.8 mph 76% 0 in 14.00 W/m2 unknown
16:34 55.4 °F 48.2 °F 30.2 in ENE 4.3 mph 6.8 mph 76% 0 in 11.00 W/m2 unknown
16:39 55.4 °F 48.2 °F 30.2 in ENE 5 mph 6.8 mph 77% 0 in 7.00 W/m2 unknown
16:44 55.4 °F 48.2 °F 30.2 in ENE 3.1 mph 6.8 mph 77% 0 in 5.00 W/m2 unknown
16:49 55.4 °F 48.2 °F 30.2 in ENE 1.9 mph 5 mph 77% 0 in 0.00 W/m2 unknown
16:54 55.4 °F 48.2 °F 30.2 in ENE 1.9 mph 3.7 mph 78% 0 in 0.00 W/m2 unknown
16:59 53.6 °F 48.2 °F 30.2 in ENE 3.1 mph 3.7 mph 78% 0 in 0.00 W/m2 unknown
17:04 53.6 °F 48.2 °F 30.2 in NE 3.1 mph 3.7 mph 79% 0 in 0.00 W/m2 unknown
17:09 53.6 °F 48.2 °F 30.2 in NE 2.5 mph 3.7 mph 80% 0 in 0.00 W/m2 unknown
17:14 53.6 °F 48.2 °F 30.2 in NE 1.9 mph 3.7 mph 80% 0 in 0.00 W/m2 unknown
17:19 53.6 °F 48.2 °F 30.2 in NE 1.2 mph 3.1 mph 80% 0 in 0.00 W/m2 unknown
17:24 53.6 °F 48.2 °F 30.2 in Calm   1.9 mph 81% 0 in 0.00 W/m2 unknown
17:29 53.6 °F 48.2 °F 30.2 in Calm     82% 0 in 0.00 W/m2 unknown
17:34 53.6 °F 48.2 °F 30.2 in Calm     82% 0 in 0.00 W/m2 unknown
17:39 53.6 °F 48.2 °F 30.2 in Calm     82% 0 in 0.00 W/m2 unknown
17:44 53.6 °F 48.2 °F 30.2 in Calm     83% 0 in 0.00 W/m2 unknown
17:49 51.8 °F 48.2 °F 30.2 in Calm     84% 0 in 0.00 W/m2 unknown
17:54 51.8 °F 48.2 °F 30.2 in Calm     84% 0 in 0.00 W/m2 unknown
17:59 51.8 °F 48.2 °F 30.2 in Calm     84% 0 in 0.00 W/m2 unknown
18:04 51.8 °F 48.2 °F 30.2 in Calm     84% 0 in 0.00 W/m2 unknown
18:09 51.8 °F 48.2 °F 30.2 in Calm     85% 0 in 0.00 W/m2 unknown
18:14 51.8 °F 48.2 °F 30.2 in Calm     85% 0 in 0.00 W/m2 unknown
18:19 51.8 °F 48.2 °F 30.2 in Calm     86% 0 in 0.00 W/m2 unknown
18:24 51.8 °F 48.2 °F 30.2 in ENE 0.6 mph 1.9 mph 86% 0 in 0.00 W/m2 unknown
18:29 51.8 °F 48.2 °F 30.2 in ENE 1.9 mph 2.5 mph 86% 0 in 0.00 W/m2 unknown
18:34 51.8 °F 46.4 °F 30.2 in NNE 1.9 mph 3.7 mph 86% 0 in 0.00 W/m2 unknown
18:39 51.8 °F 48.2 °F 30.2 in NNE 1.9 mph 3.7 mph 87% 0 in 0.00 W/m2 unknown
18:44 51.8 °F 48.2 °F 30.2 in Calm   1.9 mph 86% 0 in 0.00 W/m2 unknown
18:49 51.8 °F 48.2 °F 30.2 in Calm     86% 0 in 0.00 W/m2 unknown
18:54 51.8 °F 46.4 °F 30.2 in NNE 0.6 mph 1.2 mph 86% 0 in 0.00 W/m2 unknown
18:59 51.8 °F 46.4 °F 30.2 in Calm   1.2 mph 86% 0 in 0.00 W/m2 unknown
19:04 51.8 °F 46.4 °F 30.2 in Calm   1.2 mph 86% 0 in 0.00 W/m2 unknown
19:09 51.8 °F 48.2 °F 30.2 in Calm   1.2 mph 86% 0 in 0.00 W/m2 unknown
19:14 51.8 °F 48.2 °F 30.2 in Calm     86% 0 in 0.00 W/m2 unknown
19:19 51.8 °F 48.2 °F 30.2 in Calm     86% 0 in 0.00 W/m2 unknown
19:24 51.8 °F 48.2 °F 30.2 in Calm     86% 0 in 0.00 W/m2 unknown
19:29 51.8 °F 48.2 °F 30.2 in Calm     86% 0 in 0.00 W/m2 unknown
19:34 51.8 °F 48.2 °F 30.2 in Calm     86% 0 in 0.00 W/m2 unknown
19:39 51.8 °F 48.2 °F 30.2 in Calm     89% 0 in 0.00 W/m2 unknown
19:44 51.8 °F 48.2 °F 30.2 in Calm     89% 0 in 0.00 W/m2 unknown
19:49 51.8 °F 48.2 °F 30.2 in Calm     89% 0 in 0.00 W/m2 unknown
19:54 51.8 °F 48.2 °F 30.2 in NNE 1.2 mph 2.5 mph 89% 0 in 0.00 W/m2 unknown
19:59 51.8 °F 48.2 °F 30.2 in NNE 1.9 mph 2.5 mph 87% 0 in 0.00 W/m2 unknown
20:04 51.8 °F 48.2 °F 30.2 in NE 1.9 mph 3.7 mph 87% 0 in 0.00 W/m2 unknown
20:09 51.8 °F 48.2 °F 30.2 in NE 2.5 mph 3.7 mph 86% 0 in 0.00 W/m2 unknown
20:14 51.8 °F 48.2 °F 30.2 in NE 2.5 mph 3.7 mph 85% 0 in 0.00 W/m2 unknown
20:19 51.8 °F 48.2 °F 30.2 in NE 2.5 mph 3.7 mph 84% 0 in 0.00 W/m2 unknown
20:24 51.8 °F 48.2 °F 30.3 in NE 1.9 mph 3.1 mph 83% 0 in 0.00 W/m2 unknown
20:29 51.8 °F 48.2 °F 30.3 in NE 1.2 mph 2.5 mph 84% 0 in 0.00 W/m2 unknown
20:34 51.8 °F 48.2 °F 30.3 in NE 1.2 mph 1.9 mph 84% 0 in 0.00 W/m2 unknown
20:39 51.8 °F 48.2 °F 30.3 in ENE 1.9 mph 3.7 mph 85% 0 in 0.00 W/m2 unknown
20:44 51.8 °F 48.2 °F 30.3 in ENE 1.2 mph 3.1 mph 86% 0 in 0.00 W/m2 unknown
20:49 51.8 °F 48.2 °F 30.3 in Calm   1.9 mph 87% 0 in 0.00 W/m2 unknown
20:54 51.8 °F 48.2 °F 30.3 in ENE 1.9 mph 3.1 mph 88% 0 in 0.00 W/m2 unknown
20:59 51.8 °F 48.2 °F 30.3 in ENE 3.1 mph 3.7 mph 89% 0 in 0.00 W/m2 unknown
21:04 51.8 °F 48.2 °F 30.3 in NE 4.3 mph 6.8 mph 89% 0 in 0.00 W/m2 unknown
21:09 51.8 °F 48.2 °F 30.3 in ENE 5 mph 8.1 mph 89% 0.01 in 0.00 W/m2 unknown
21:14 51.8 °F 48.2 °F 30.3 in ENE 5.6 mph 8.1 mph 89% 0.01 in 0.00 W/m2 unknown
21:19 51.8 °F 48.2 °F 30.3 in ENE 6.2 mph 8.7 mph 89% 0.01 in 0.00 W/m2 unknown
21:24 51.8 °F 48.2 °F 30.3 in ENE 6.2 mph 9.3 mph 89% 0.01 in 0.00 W/m2 unknown
21:29 51.8 °F 48.2 °F 30.3 in ENE 5.6 mph 8.7 mph 89% 0.01 in 0.00 W/m2 unknown
21:34 51.8 °F 48.2 °F 30.3 in ENE 5.6 mph 8.1 mph 90% 0.02 in 0.00 W/m2 unknown
21:39 51.8 °F 48.2 °F 30.3 in ENE 5.6 mph 8.1 mph 90% 0.02 in 0.00 W/m2 unknown
21:44 51.8 °F 48.2 °F 30.3 in ENE 5.6 mph 8.1 mph 90% 0.02 in 0.00 W/m2 unknown
21:49 50 °F 48.2 °F 30.3 in ENE 3.7 mph 8.1 mph 91% 0.02 in 0.00 W/m2 unknown
21:54 50 °F 48.2 °F 30.3 in ENE 3.1 mph 5 mph 91% 0.02 in 0.00 W/m2 unknown
21:59 50 °F 48.2 °F 30.3 in ENE 4.3 mph 6.8 mph 91% 0.02 in 0.00 W/m2 unknown
22:04 50 °F 48.2 °F 30.3 in ENE 5 mph 6.8 mph 91% 0.02 in 0.00 W/m2 unknown
22:09 50 °F 48.2 °F 30.3 in ENE 5 mph 6.8 mph 92% 0.02 in 0.00 W/m2 unknown
22:14 50 °F 48.2 °F 30.3 in ENE 4.3 mph 6.8 mph 92% 0.02 in 0.00 W/m2 unknown
22:19 50 °F 48.2 °F 30.3 in East 5 mph 6.8 mph 92% 0.02 in 0.00 W/m2 unknown
22:24 50 °F 48.2 °F 30.3 in ENE 5.6 mph 8.7 mph 92% 0.02 in 0.00 W/m2 unknown
22:29 50 °F 48.2 °F 30.3 in ENE 6.2 mph 9.3 mph 92% 0.02 in 0.00 W/m2 unknown
22:34 50 °F 48.2 °F 30.3 in ENE 6.2 mph 8.7 mph 92% 0.02 in 0.00 W/m2 unknown
22:39 50 °F 48.2 °F 30.3 in ENE 5.6 mph 8.1 mph 92% 0.01 in 0.00 W/m2 unknown
22:44 50 °F 48.2 °F 30.3 in ENE 5 mph 8.1 mph 92% 0.01 in 0.00 W/m2 unknown
22:49 50 °F 48.2 °F 30.3 in ENE 5 mph 8.1 mph 92% 0.01 in 0.00 W/m2 unknown
22:54 51.8 °F 48.2 °F 30.2 in ENE 5 mph 8.1 mph 92% 0.01 in 0.00 W/m2 unknown
22:59 51.8 °F 48.2 °F 30.2 in ENE 5 mph 8.1 mph 92% 0.01 in 0.00 W/m2 unknown
23:04 51.8 °F 48.2 °F 30.2 in ENE 5.6 mph 8.1 mph 91% 0.01 in 0.00 W/m2 unknown
23:09 51.8 °F 48.2 °F 30.2 in ENE 6.8 mph 9.3 mph 91% 0 in 0.00 W/m2 unknown
23:14 50 °F 48.2 °F 30.2 in East 5 mph 8.7 mph 91% 0 in 0.00 W/m2 unknown
23:19 50 °F 48.2 °F 30.2 in East 5 mph 8.1 mph 91% 0 in 0.00 W/m2 unknown
23:24 50 °F 48.2 °F 30.2 in East 5.6 mph 8.7 mph 91% 0 in 0.00 W/m2 unknown
23:29 50 °F 48.2 °F 30.2 in East 6.2 mph 9.3 mph 91% 0 in 0.00 W/m2 unknown
23:34 50 °F 48.2 °F 30.2 in East 5.6 mph 8.7 mph 91% 0 in 0.00 W/m2 unknown
23:39 50 °F 48.2 °F 30.2 in ENE 6.2 mph 8.7 mph 91% 0 in 0.00 W/m2 unknown
23:44 50 °F 48.2 °F 30.2 in ENE 8.7 mph 11.8 mph 91% 0 in 0.00 W/m2 unknown
23:49 50 °F 48.2 °F 30.2 in NE 8.1 mph 11.8 mph 91% 0 in 0.00 W/m2 unknown
23:54 51.8 °F 48.2 °F 30.2 in ENE 8.1 mph 10.6 mph 90% 0 in 0.00 W/m2 unknown
23:59 51.8 °F 48.2 °F 30.2 in ENE 8.7 mph 11.8 mph 90% 0 in 0.00 W/m2 unknown
Stazione Meteorologica MeteoMincio Rivalta s/M (MN)
Con i complimenti di Weather Underground - 4 mb



METEO PILLOLE
Il luogo più nebbioso degli USA
Cape Disappointment - Washington
Per 2552 ore (106 giorni) all'anno in media è avvolto da nebbia fitta.
Share

Non seguire questo link o sarai bannato dal sito!